Time;durP1;ratioP1;P1;durP2;ratioP2;P2;SDS_P1;SDS_P2;PMS_P1;PMS_P2;Temp;Humidity;BMP_temperature;BMP_pressure;BME280_temperature;BME280_humidity;BME280_pressure;Samples;Min_cycle;Max_cycle;Signal;HPM_P1;HPM_P2
2021/10/01 00:01:06;;;;;;;10.40;2.15;;;15.10;95.70;;;;;;5091598;28;20028;-77
2021/10/01 00:03:32;;;;;;;13.95;2.47;;;15.10;95.70;;;;;;5092252;28;20462;-80
2021/10/01 00:05:58;;;;;;;16.10;2.72;;;15.10;95.60;;;;;;5091012;28;20035;-79
2021/10/01 00:08:23;;;;;;;8.40;2.38;;;15.00;95.60;;;;;;5090954;28;20120;-78
2021/10/01 00:10:49;;;;;;;14.13;2.75;;;15.00;95.60;;;;;;5091432;28;20034;-76
2021/10/01 00:13:15;;;;;;;9.70;2.10;;;15.00;95.50;;;;;;5091321;28;20062;-78
2021/10/01 00:15:43;;;;;;;11.18;2.47;;;15.00;95.50;;;;;;5074292;28;20549;-76
2021/10/01 00:18:11;;;;;;;10.93;2.20;;;15.00;95.50;;;;;;5077727;28;20044;-77
2021/10/01 00:20:37;;;;;;;13.23;2.30;;;15.00;95.50;;;;;;5094822;28;20031;-78
2021/10/01 00:23:03;;;;;;;11.35;2.30;;;14.90;95.40;;;;;;5094962;28;20031;-76
2021/10/01 00:25:28;;;;;;;14.93;3.10;;;14.90;95.30;;;;;;5078365;28;20039;-78
2021/10/01 00:27:54;;;;;;;14.70;3.28;;;14.90;95.30;;;;;;5077694;28;20489;-77
2021/10/01 00:30:20;;;;;;;13.00;2.15;;;14.90;95.40;;;;;;5094916;28;20032;-77
2021/10/01 00:32:46;;;;;;;15.35;2.17;;;14.90;95.30;;;;;;5077497;28;20090;-79
2021/10/01 00:35:11;;;;;;;;;;;14.80;95.30;;;;;;5095958;28;20036;-79
2021/10/01 00:37:37;;;;;;;11.10;2.13;;;14.80;95.40;;;;;;5095531;28;19904;-78
2021/10/01 00:40:04;;;;;;;14.43;2.50;;;14.80;95.30;;;;;;5094204;28;20127;-78
2021/10/01 00:42:31;;;;;;;10.02;2.10;;;14.80;95.40;;;;;;5094957;28;20485;-78
2021/10/01 00:44:56;;;;;;;14.95;2.92;;;14.80;95.40;;;;;;5095720;28;20382;-77
2021/10/01 00:47:22;;;;;;;14.25;2.38;;;14.80;95.50;;;;;;5095808;28;20024;-78
2021/10/01 00:49:48;;;;;;;17.83;2.97;;;14.80;95.50;;;;;;5094246;28;20035;-79
2021/10/01 00:52:17;;;;;;;11.40;2.80;;;14.90;95.40;;;;;;5095411;28;20105;-76
2021/10/01 00:54:43;;;;;;;12.63;2.40;;;14.80;95.40;;;;;;5095546;28;20028;-78
2021/10/01 00:57:09;;;;;;;11.95;2.50;;;14.80;95.50;;;;;;5096109;28;20062;-78
2021/10/01 00:59:35;;;;;;;;;;;14.80;95.60;;;;;;5096754;28;20653;-77
2021/10/01 01:02:01;;;;;;;14.55;2.60;;;14.80;95.60;;;;;;5094306;28;19977;-77
2021/10/01 01:04:27;;;;;;;12.40;2.25;;;14.80;95.50;;;;;;5094285;28;20051;-78
2021/10/01 01:07:10;;;;;;;12.68;2.30;;;14.80;95.50;;;;;;5094134;28;20511;-77
2021/10/01 01:09:46;;;;;;;15.30;3.17;;;14.80;95.50;;;;;;5093532;28;20024;-81
2021/10/01 01:12:31;;;;;;;16.55;2.80;;;14.80;95.50;;;;;;5094941;28;20486;-77
2021/10/01 01:15:05;;;;;;;10.38;2.08;;;14.80;95.40;;;;;;5095150;28;20028;-76
2021/10/01 01:17:46;;;;;;;11.35;2.20;;;14.70;95.40;;;;;;5094939;28;20409;-77
2021/10/01 01:20:23;;;;;;;13.32;2.53;;;14.70;95.40;;;;;;5095148;28;20359;-76
2021/10/01 01:22:58;;;;;;;12.82;3.15;;;14.70;95.30;;;;;;5095267;28;20017;-77
2021/10/01 01:25:35;;;;;;;9.85;2.25;;;14.70;95.30;;;;;;5095252;28;20016;-77
2021/10/01 01:28:06;;;;;;;14.07;3.00;;;14.60;95.40;;;;;;5093100;28;20028;-76
2021/10/01 01:30:45;;;;;;;12.35;2.20;;;14.50;95.40;;;;;;5094458;28;20020;-76
2021/10/01 01:33:15;;;;;;;12.88;2.55;;;14.40;95.50;;;;;;5094185;28;20024;-78
2021/10/01 01:35:43;;;;;;;9.50;2.08;;;14.40;95.50;;;;;;5094179;28;20032;-77
2021/10/01 01:38:13;;;;;;;9.85;3.08;;;14.30;95.60;;;;;;5092595;28;20028;-75
2021/10/01 01:40:42;;;;;;;10.02;1.92;;;14.30;95.60;;;;;;5094256;28;20466;-76
2021/10/01 01:43:11;;;;;;;11.18;2.17;;;14.30;95.70;;;;;;5094191;28;20024;-77
2021/10/01 01:45:38;;;;;;;11.20;2.30;;;14.20;95.70;;;;;;5094483;28;20538;-75
2021/10/01 01:48:07;;;;;;;13.52;2.53;;;14.20;95.70;;;;;;5092942;28;20374;-77
2021/10/01 01:50:33;;;;;;;12.25;1.90;;;14.20;95.80;;;;;;5093996;28;20476;-76
2021/10/01 01:52:59;;;;;;;10.95;2.33;;;14.10;95.80;;;;;;5093819;28;20517;-77
2021/10/01 01:55:25;;;;;;;10.27;2.03;;;14.10;95.90;;;;;;5092613;28;20066;-76
2021/10/01 01:57:53;;;;;;;12.00;2.42;;;14.10;95.90;;;;;;5092390;28;20060;-77
2021/10/01 02:00:20;;;;;;;12.00;2.20;;;14.10;95.90;;;;;;5094095;28;20024;-77
2021/10/01 02:02:49;;;;;;;12.90;2.15;;;14.00;96.00;;;;;;5093782;28;20047;-78
2021/10/01 02:05:15;;;;;;;8.05;1.85;;;14.00;96.00;;;;;;5093719;28;20012;-76
2021/10/01 02:07:41;;;;;;;;;;;14.00;96.10;;;;;;5093960;28;20039;-76
2021/10/01 02:10:08;;;;;;;10.27;2.37;;;14.10;96.30;;;;;;5092912;28;20353;-78
2021/10/01 02:12:34;;;;;;;9.90;1.65;;;14.20;96.20;;;;;;5092322;28;20035;-77
2021/10/01 02:15:01;;;;;;;10.82;2.17;;;14.20;96.20;;;;;;5092829;28;20375;-77
2021/10/01 02:17:31;;;;;;;17.25;2.58;;;14.20;96.30;;;;;;5092232;28;20477;-76
2021/10/01 02:19:59;;;;;;;9.82;2.35;;;14.20;96.40;;;;;;5092101;28;20028;-78
2021/10/01 02:22:27;;;;;;;11.05;2.05;;;14.20;96.50;;;;;;5091921;28;20444;-77
2021/10/01 02:24:52;;;;;;;15.35;2.83;;;14.20;96.60;;;;;;5091944;28;20114;-78
2021/10/01 02:27:46;;;;;;;7.60;2.00;;;14.20;96.80;;;;;;5093375;28;20107;-79
2021/10/01 02:30:19;;;;;;;10.07;2.28;;;14.10;96.90;;;;;;5091781;28;20051;-79
2021/10/01 02:32:58;;;;;;;12.45;2.28;;;14.10;96.90;;;;;;5092975;28;20031;-79
2021/10/01 02:35:24;;;;;;;14.27;2.42;;;14.10;97.00;;;;;;5092728;28;20093;-77
2021/10/01 02:37:50;;;;;;;14.50;2.50;;;14.00;97.10;;;;;;5091281;28;20067;-78
2021/10/01 02:40:16;;;;;;;16.40;2.70;;;14.00;97.20;;;;;;5073676;28;20093;-79
2021/10/01 02:42:42;;;;;;;14.05;2.72;;;13.90;97.20;;;;;;5092663;28;20020;-76
2021/10/01 02:45:09;;;;;;;10.45;1.95;;;13.90;97.40;;;;;;5074405;28;20028;-77
2021/10/01 02:47:36;;;;;;;12.52;3.50;;;13.90;97.50;;;;;;5091378;28;20032;-79
2021/10/01 02:50:21;;;;;;;7.43;1.90;;;14.00;97.50;;;;;;5074395;28;20028;-78
2021/10/01 02:52:56;;;;;;;9.60;2.10;;;14.00;97.50;;;;;;5074378;28;20058;-77
2021/10/01 02:55:35;;;;;;;8.68;1.80;;;13.90;97.40;;;;;;5092376;28;20421;-76
2021/10/01 02:58:10;;;;;;;8.18;1.52;;;13.80;97.30;;;;;;5092185;28;20032;-77
2021/10/01 03:00:36;;;;;;;9.85;1.55;;;13.60;97.30;;;;;;5092371;28;20028;-78
2021/10/01 03:03:23;;;;;;;7.35;1.63;;;13.50;97.30;;;;;;5091120;28;20020;-78
2021/10/01 03:05:52;;;;;;;10.18;2.30;;;13.30;97.30;;;;;;5092191;28;20020;-79
2021/10/01 03:08:19;;;;;;;6.72;1.23;;;13.30;97.20;;;;;;5090846;28;20442;-79
2021/10/01 03:10:48;;;;;;;7.90;2.55;;;13.20;97.10;;;;;;5092259;28;20028;-78
2021/10/01 03:13:18;;;;;;;9.02;1.98;;;13.10;96.90;;;;;;5090737;28;20023;-77
2021/10/01 03:15:44;;;;;;;5.75;1.25;;;13.10;96.90;;;;;;5090635;28;20036;-79
2021/10/01 03:18:10;;;;;;;;;;;13.00;96.90;;;;;;5074112;28;20028;-78
2021/10/01 03:20:37;;;;;;;12.45;1.70;;;12.90;96.90;;;;;;5091841;28;19918;-77
2021/10/01 03:23:03;;;;;;;8.35;1.50;;;12.80;96.80;;;;;;5092073;28;20411;-77
2021/10/01 03:25:29;;;;;;;9.00;1.40;;;12.70;96.80;;;;;;5090725;28;20469;-79
2021/10/01 03:27:56;;;;;;;11.32;1.88;;;12.70;97.00;;;;;;5091985;28;20028;-77
2021/10/01 03:30:22;;;;;;;7.63;1.80;;;12.70;97.10;;;;;;5090537;28;20028;-79
2021/10/01 03:32:48;;;;;;;15.38;2.08;;;12.70;97.20;;;;;;5073763;28;20024;-81
2021/10/01 03:35:14;;;;;;;13.55;1.60;;;12.80;97.20;;;;;;5091849;28;20481;-76
2021/10/01 03:37:41;;;;;;;11.80;1.80;;;12.80;97.00;;;;;;5091848;28;20032;-75
2021/10/01 03:40:10;;;;;;;8.27;1.73;;;12.80;96.90;;;;;;5091395;28;20132;-76
2021/10/01 03:42:37;;;;;;;7.95;2.03;;;12.90;96.80;;;;;;5091702;28;20023;-76
2021/10/01 03:45:05;;;;;;;10.00;1.52;;;12.90;96.80;;;;;;5090716;28;20028;-78
2021/10/01 03:47:30;;;;;;;10.38;2.42;;;13.00;96.80;;;;;;5091587;28;20035;-77
2021/10/01 03:49:56;;;;;;;9.13;1.70;;;13.00;96.70;;;;;;5091722;28;20085;-78
2021/10/01 03:52:22;;;;;;;4.53;1.40;;;13.00;96.60;;;;;;5090035;28;20122;-78
2021/10/01 03:54:50;;;;;;;7.45;1.92;;;13.00;96.60;;;;;;5091595;28;20043;-76
2021/10/01 03:57:16;;;;;;;8.45;1.20;;;13.00;96.50;;;;;;5091395;28;20043;-78
2021/10/01 03:59:42;;;;;;;7.97;1.45;;;13.00;96.50;;;;;;5091945;28;20032;-76
2021/10/01 04:02:08;;;;;;;5.35;1.35;;;12.90;96.40;;;;;;5091449;28;20122;-77
2021/10/01 04:04:34;;;;;;;8.52;1.50;;;12.90;96.30;;;;;;5073383;28;20390;-76
2021/10/01 04:07:01;;;;;;;4.40;1.00;;;12.90;96.10;;;;;;5090278;28;20077;-75
2021/10/01 04:09:27;;;;;;;21.40;2.40;;;12.80;96.00;;;;;;5090409;28;20386;-76
2021/10/01 04:11:54;;;;;;;5.65;1.13;;;12.80;96.00;;;;;;5091678;28;20032;-78
2021/10/01 04:14:21;;;;;;;4.68;1.05;;;12.80;96.00;;;;;;5090279;28;20028;-79
2021/10/01 04:16:48;;;;;;;8.23;1.80;;;12.80;96.00;;;;;;5091431;28;20039;-77
2021/10/01 04:19:13;;;;;;;7.53;1.23;;;12.80;95.90;;;;;;5090141;28;20021;-75
2021/10/01 04:21:39;;;;;;;7.60;1.63;;;12.80;95.80;;;;;;5090315;28;20032;-78
2021/10/01 04:24:05;;;;;;;6.88;1.17;;;12.80;95.70;;;;;;5090005;28;20031;-75
2021/10/01 04:26:31;;;;;;;5.63;1.25;;;12.80;95.60;;;;;;5091450;28;20115;-77
2021/10/01 04:28:56;;;;;;;9.32;1.05;;;12.80;95.60;;;;;;5090210;28;20062;-77
2021/10/01 04:31:22;;;;;;;4.63;1.13;;;12.80;95.60;;;;;;5091479;28;20020;-77
2021/10/01 04:33:48;;;;;;;9.07;1.23;;;12.80;95.60;;;;;;5090345;28;20390;-78
2021/10/01 04:36:14;;;;;;;6.72;1.10;;;12.70;95.80;;;;;;5090005;28;20024;-81
2021/10/01 04:38:40;;;;;;;7.40;1.20;;;12.50;96.00;;;;;;5091451;28;20068;-76
2021/10/01 04:41:06;;;;;;;5.13;1.00;;;12.40;96.20;;;;;;5091307;28;20032;-78
2021/10/01 04:43:32;;;;;;;8.45;1.13;;;12.30;96.40;;;;;;5091369;28;20108;-75
2021/10/01 04:45:58;;;;;;;6.10;0.80;;;12.30;96.40;;;;;;5090211;28;20048;-79
2021/10/01 04:48:24;;;;;;;5.35;1.08;;;12.20;96.40;;;;;;5090109;28;20469;-76
2021/10/01 04:50:50;;;;;;;;;;;12.10;96.50;;;;;;5090461;28;20032;-76
2021/10/01 04:53:15;;;;;;;7.82;1.40;;;12.10;96.50;;;;;;5091297;28;19919;-78
2021/10/01 04:55:41;;;;;;;3.17;0.90;;;12.00;96.30;;;;;;5091265;28;20025;-78
2021/10/01 04:58:07;;;;;;;5.53;0.70;;;12.00;96.20;;;;;;5091213;28;20075;-75
2021/10/01 05:00:34;;;;;;;4.13;0.93;;;11.90;96.20;;;;;;5091160;28;20031;-77
2021/10/01 05:03:00;;;;;;;3.50;0.60;;;11.80;96.20;;;;;;5091925;28;20115;-76
2021/10/01 05:05:26;;;;;;;;;;;11.70;96.30;;;;;;5093926;28;20020;-75
2021/10/01 05:07:52;;;;;;;2.90;0.60;;;11.60;96.50;;;;;;5093205;28;19919;-76
2021/10/01 05:10:18;;;;;;;2.47;0.50;;;11.60;96.30;;;;;;5094799;28;20489;-76
2021/10/01 05:12:45;;;;;;;1.75;0.47;;;11.60;96.20;;;;;;5093319;28;20043;-79
2021/10/01 05:15:11;;;;;;;5.78;0.90;;;11.60;96.20;;;;;;5092948;28;20546;-79
2021/10/01 05:17:38;;;;;;;4.03;0.65;;;11.50;96.10;;;;;;5094173;28;20028;-76
2021/10/01 05:20:07;;;;;;;12.93;1.70;;;11.50;96.10;;;;;;5094255;28;20032;-76
2021/10/01 05:22:33;;;;;;;5.22;1.20;;;11.40;95.90;;;;;;5094276;28;20028;-76
2021/10/01 05:24:59;;;;;;;5.88;1.27;;;11.40;95.80;;;;;;5094382;28;20031;-76
2021/10/01 05:27:25;;;;;;;;;;;11.30;95.80;;;;;;5094834;28;20024;-77
2021/10/01 05:29:51;;;;;;;2.90;0.60;;;11.20;95.90;;;;;;5093946;28;20276;-78
2021/10/01 05:32:17;;;;;;;7.95;0.82;;;11.10;95.80;;;;;;5094450;28;20042;-77
2021/10/01 05:34:42;;;;;;;4.43;0.63;;;11.00;95.80;;;;;;5092480;28;20452;-77
2021/10/01 05:37:08;;;;;;;5.60;1.30;;;10.90;95.90;;;;;;5093744;28;20055;-76
2021/10/01 05:39:34;;;;;;;4.70;0.70;;;10.90;95.90;;;;;;5092352;28;20044;-77
2021/10/01 05:42:00;;;;;;;;;;;10.80;95.90;;;;;;5076192;28;20082;-76
2021/10/01 05:44:26;;;;;;;5.55;0.80;;;10.70;96.00;;;;;;5093511;28;20269;-76
2021/10/01 05:46:52;;;;;;;4.70;0.82;;;10.70;95.90;;;;;;5075349;28;20024;-77
2021/10/01 05:49:27;;;;;;;5.53;0.90;;;10.60;95.90;;;;;;5093474;28;20032;-78
2021/10/01 05:52:01;;;;;;;9.27;0.90;;;10.60;96.00;;;;;;5092286;28;20028;-77
2021/10/01 05:54:27;;;;;;;6.38;1.20;;;10.60;96.00;;;;;;5092563;28;20028;-78
2021/10/01 05:56:56;;;;;;;2.88;0.55;;;10.50;96.00;;;;;;5091867;28;20107;-75
2021/10/01 05:59:22;;;;;;;8.75;1.30;;;10.50;96.00;;;;;;5093252;28;20479;-76
2021/10/01 06:01:48;;;;;;;;;;;10.50;96.00;;;;;;5093890;28;20028;-76
2021/10/01 06:04:14;;;;;;;5.80;1.27;;;10.40;96.00;;;;;;5091991;28;19908;-76
2021/10/01 06:06:40;;;;;;;6.50;1.58;;;10.40;96.00;;;;;;5075078;28;20028;-76
2021/10/01 06:09:11;;;;;;;7.68;0.80;;;10.40;96.00;;;;;;5091866;28;20412;-77
2021/10/01 06:11:37;;;;;;;5.95;0.93;;;10.40;96.00;;;;;;5092177;28;20024;-77
2021/10/01 06:14:05;;;;;;;4.85;1.25;;;10.30;96.00;;;;;;5092763;28;20048;-77
2021/10/01 06:16:31;;;;;;;4.78;0.90;;;10.30;95.90;;;;;;5075136;28;20115;-77
2021/10/01 06:18:57;;;;;;;10.35;1.40;;;10.30;95.90;;;;;;5091703;28;20024;-76
2021/10/01 06:21:22;;;;;;;7.35;0.82;;;10.30;95.90;;;;;;5091420;28;20024;-78
2021/10/01 06:23:48;;;;;;;8.80;1.27;;;10.30;95.90;;;;;;5091167;28;20038;-76
2021/10/01 06:26:14;;;;;;;9.73;1.38;;;10.30;95.90;;;;;;5092607;28;20050;-76
2021/10/01 06:28:40;;;;;;;9.32;0.90;;;10.20;95.90;;;;;;5092531;28;20452;-76
2021/10/01 06:31:06;;;;;;;4.68;0.90;;;10.20;95.90;;;;;;5091455;28;20031;-76
2021/10/01 06:33:32;;;;;;;7.18;2.17;;;10.20;96.00;;;;;;5091411;28;20085;-78
2021/10/01 06:35:59;;;;;;;3.78;0.90;;;10.20;96.00;;;;;;5091224;28;20063;-77
2021/10/01 06:38:26;;;;;;;5.30;0.80;;;10.20;96.00;;;;;;5092126;28;20024;-76
2021/10/01 06:40:51;;;;;;;2.92;0.80;;;10.20;96.00;;;;;;5092341;28;20028;-77
2021/10/01 06:43:19;;;;;;;4.70;1.42;;;10.20;96.10;;;;;;5092394;28;20047;-76
2021/10/01 06:45:50;;;;;;;11.40;1.17;;;10.20;96.10;;;;;;5092795;28;20017;-76
2021/10/01 06:51:35;;;;;;;4.28;1.17;;;10.10;96.10;;;;;;5017686;28;20036;-77
2021/10/01 08:19:25;;;;;;;9.48;1.52;;;14.10;93.80;;;;;;5090969;28;20123;-76
2021/10/01 08:21:55;;;;;;;6.32;1.60;;;15.30;92.80;;;;;;5089418;28;20025;-78
2021/10/01 08:24:22;;;;;;;5.35;1.30;;;16.30;91.40;;;;;;5089218;28;20020;-76
2021/10/01 08:26:49;;;;;;;8.25;1.58;;;17.10;90.20;;;;;;5072087;28;20024;-77
2021/10/01 08:29:15;;;;;;;7.03;1.30;;;17.80;87.20;;;;;;5072405;28;20034;-77
2021/10/01 08:31:42;;;;;;;5.60;1.00;;;18.30;84.20;;;;;;5090629;28;20035;-76
2021/10/01 08:34:08;;;;;;;6.38;1.95;;;18.80;82.40;;;;;;5090753;28;20036;-76
2021/10/01 08:36:34;;;;;;;;;;;19.20;80.00;;;;;;5091292;28;20028;-78
2021/10/01 08:38:59;;;;;;;5.95;1.10;;;19.50;77.90;;;;;;5091277;28;19912;-76
2021/10/01 08:41:25;;;;;;;5.88;1.63;;;19.70;77.30;;;;;;5076545;28;20494;-77
2021/10/01 08:43:51;;;;;;;7.78;1.45;;;19.90;75.40;;;;;;5094447;28;20035;-76
2021/10/01 08:46:18;;;;;;;7.55;1.63;;;20.20;74.70;;;;;;5092848;28;20085;-77
2021/10/01 08:48:45;;;;;;;11.60;2.25;;;20.60;72.40;;;;;;5093929;28;20035;-78
2021/10/01 08:51:13;;;;;;;6.70;1.50;;;20.70;70.10;;;;;;5092490;28;20413;-77
2021/10/01 08:53:39;;;;;;;11.38;1.73;;;20.80;69.50;;;;;;5094246;28;20547;-77
2021/10/01 08:56:06;;;;;;;6.72;1.30;;;20.90;68.80;;;;;;5093859;28;20071;-77
2021/10/01 08:58:32;;;;;;;7.15;1.50;;;21.00;67.90;;;;;;5092417;28;20126;-77
2021/10/01 09:00:59;;;;;;;;;;;21.20;67.90;;;;;;5094921;28;20020;-78
2021/10/01 09:03:24;;;;;;;8.73;2.33;;;21.40;66.40;;;;;;5093029;28;20018;-77
2021/10/01 09:05:50;;;;;;;;;;;21.60;66.80;;;;;;5094616;28;20109;-79
2021/10/01 09:08:18;;;;;;;9.95;1.50;;;21.80;65.60;;;;;;5094087;28;20456;-79
2021/10/01 09:11:03;;;;;;;8.13;2.15;;;22.00;65.50;;;;;;5094953;28;20024;-79
2021/10/01 09:13:30;;;;;;;9.40;1.83;;;22.20;63.70;;;;;;5100056;28;20034;-77
2021/10/01 09:16:04;;;;;;;8.30;1.75;;;22.20;62.40;;;;;;5115999;28;20028;-78
2021/10/01 09:18:32;;;;;;;6.13;1.60;;;22.20;61.70;;;;;;5114508;28;20016;-75
2021/10/01 09:21:07;;;;;;;8.40;1.50;;;22.20;60.90;;;;;;5107400;28;20028;-76
2021/10/01 09:23:36;;;;;;;7.90;1.52;;;22.10;60.00;;;;;;5102123;28;20039;-73
2021/10/01 09:26:07;;;;;;;6.85;1.30;;;22.20;60.10;;;;;;5108706;28;20019;-76
2021/10/01 09:28:58;;;;;;;9.15;1.50;;;22.30;59.90;;;;;;5100925;28;20439;-76
2021/10/01 09:31:45;;;;;;;7.07;1.60;;;22.40;58.90;;;;;;5103755;28;20103;-76
2021/10/01 09:34:29;;;;;;;5.95;1.55;;;22.50;58.90;;;;;;5105005;28;20511;-78
2021/10/01 09:37:05;;;;;;;8.68;1.55;;;22.90;59.40;;;;;;5099547;28;20028;-76
2021/10/01 09:39:38;;;;;;;6.45;1.73;;;23.30;58.60;;;;;;5105378;28;20043;-76
2021/10/01 09:42:17;;;;;;;10.77;2.80;;;23.50;57.40;;;;;;5099947;28;20059;-75
2021/10/01 09:44:49;;;;;;;6.07;1.60;;;23.80;56.90;;;;;;5103148;28;20028;-75
2021/10/01 09:47:17;;;;;;;6.25;1.23;;;23.90;55.80;;;;;;5102873;28;20047;-76
2021/10/01 09:49:43;;;;;;;7.65;1.50;;;24.00;56.20;;;;;;5094750;28;20023;-76
2021/10/01 09:52:11;;;;;;;5.32;1.67;;;24.10;55.00;;;;;;5094553;28;20096;-74
2021/10/01 09:54:38;;;;;;;8.57;1.20;;;24.20;54.50;;;;;;5104868;28;20034;-77
2021/10/01 09:57:07;;;;;;;11.50;2.25;;;24.20;54.00;;;;;;5103762;28;20027;-76
2021/10/01 09:59:35;;;;;;;14.13;2.47;;;24.10;54.10;;;;;;5102732;28;20032;-76
2021/10/01 10:02:06;;;;;;;11.50;4.00;;;24.10;53.50;;;;;;5095348;28;20020;-75
2021/10/01 10:04:52;;;;;;;7.97;1.30;;;24.00;53.70;;;;;;5098437;28;20024;-76
2021/10/01 10:07:25;;;;;;;8.40;1.08;;;24.00;53.20;;;;;;5101605;28;20020;-79
2021/10/01 10:10:11;;;;;;;9.68;2.47;;;24.10;53.80;;;;;;5103345;28;20034;-74
2021/10/01 10:12:43;;;;;;;6.15;1.70;;;24.40;53.50;;;;;;5106462;28;20096;-77
2021/10/01 10:15:15;;;;;;;9.23;1.65;;;24.50;52.60;;;;;;5100707;28;20666;-77
2021/10/01 10:17:50;;;;;;;10.18;2.00;;;24.60;51.80;;;;;;5107505;28;20523;-77
2021/10/01 10:20:18;;;;;;;9.68;1.52;;;24.50;51.00;;;;;;5112614;28;20038;-78
2021/10/01 10:22:44;;;;;;;6.47;1.63;;;24.40;51.10;;;;;;5109337;28;20515;-76
2021/10/01 10:25:09;;;;;;;6.95;1.52;;;24.10;50.90;;;;;;5114252;28;20024;-76
2021/10/01 10:27:36;;;;;;;9.50;2.17;;;24.20;51.80;;;;;;5112344;28;20023;-76
2021/10/01 10:30:05;;;;;;;10.85;2.20;;;24.20;51.10;;;;;;5113222;28;20026;-79
2021/10/01 10:32:32;;;;;;;10.60;2.50;;;24.20;50.80;;;;;;5113812;28;20111;-76
2021/10/01 10:35:03;;;;;;;6.95;1.10;;;24.30;50.70;;;;;;5115215;28;20339;-79
2021/10/01 10:37:44;;;;;;;6.97;1.45;;;24.60;50.70;;;;;;5114863;27;20031;-76
2021/10/01 10:40:12;;;;;;;10.85;1.92;;;24.80;50.40;;;;;;5114252;28;20384;-77
2021/10/01 10:42:44;;;;;;;8.93;1.52;;;24.80;49.40;;;;;;5114192;28;20024;-78
2021/10/01 10:45:21;;;;;;;6.85;1.35;;;24.70;50.00;;;;;;5114755;28;20031;-81
2021/10/01 10:47:54;;;;;;;6.03;1.20;;;24.70;50.20;;;;;;5113753;28;20124;-78
2021/10/01 10:50:25;;;;;;;8.82;1.65;;;24.80;49.50;;;;;;5113167;28;20087;-76
2021/10/01 10:55:59;;;;;;;10.43;1.67;;;24.50;49.30;;;;;;5113960;28;20032;-78
2021/10/01 10:58:28;;;;;;;8.65;1.50;;;24.10;49.60;;;;;;5111966;28;20062;-78
2021/10/01 11:01:01;;;;;;;10.00;1.95;;;24.00;49.60;;;;;;5112908;28;20111;-81
2021/10/01 11:03:35;;;;;;;3.85;1.20;;;24.00;50.50;;;;;;5112423;28;20031;-78
2021/10/01 11:06:10;;;;;;;6.43;1.65;;;24.20;50.00;;;;;;5114127;28;20453;-78
2021/10/01 11:08:37;;;;;;;6.80;1.55;;;24.30;49.70;;;;;;5113773;28;20095;-77
2021/10/01 11:11:03;;;;;;;9.70;1.85;;;24.50;49.40;;;;;;5112806;28;20028;-78
2021/10/01 11:13:32;;;;;;;10.52;2.25;;;24.60;49.50;;;;;;5113660;28;20038;-78
2021/10/01 11:16:12;;;;;;;6.85;1.75;;;24.40;48.60;;;;;;5113774;28;20023;-78
2021/10/01 11:18:47;;;;;;;3.75;1.00;;;23.60;48.60;;;;;;5111719;28;20031;-78
2021/10/01 11:21:28;;;;;;;7.93;1.85;;;23.10;49.20;;;;;;5113610;28;20052;-76
2021/10/01 11:24:05;;;;;;;7.88;1.60;;;22.40;49.40;;;;;;5113576;28;20102;-80
2021/10/01 11:26:39;;;;;;;7.82;1.40;;;21.90;50.20;;;;;;5112462;28;20607;-78
2021/10/01 11:29:36;;;;;;;6.75;1.33;;;21.30;50.30;;;;;;5113089;28;20047;-77
2021/10/01 11:32:16;;;;;;;7.70;1.30;;;20.70;51.50;;;;;;5112274;28;20027;-78
2021/10/01 11:34:46;;;;;;;8.80;1.80;;;20.30;52.30;;;;;;5112525;28;20466;-78
2021/10/01 11:37:26;;;;;;;6.32;1.75;;;20.10;53.10;;;;;;5111681;28;20030;-78
2021/10/01 11:39:58;;;;;;;7.53;1.98;;;20.00;53.50;;;;;;5113409;28;20050;-77
2021/10/01 11:42:26;;;;;;;6.55;1.48;;;20.20;53.80;;;;;;5112245;28;20015;-79
2021/10/01 11:44:53;;;;;;;10.85;1.55;;;20.40;53.70;;;;;;5113041;28;20046;-76
2021/10/01 11:47:19;;;;;;;6.72;1.50;;;20.70;53.20;;;;;;5113184;28;20023;-77
2021/10/01 11:49:56;;;;;;;6.65;1.55;;;20.80;52.40;;;;;;5113523;28;20081;-79
2021/10/01 11:52:23;;;;;;;5.20;1.85;;;20.60;52.70;;;;;;5114169;28;20062;-78
2021/10/01 11:55:00;;;;;;;5.15;1.17;;;20.60;53.10;;;;;;5112035;28;20722;-77
2021/10/01 11:57:44;;;;;;;8.30;1.27;;;21.20;53.10;;;;;;5112568;28;20051;-81
2021/10/01 12:00:12;;;;;;;6.72;1.85;;;21.30;52.40;;;;;;5112279;28;20381;-79
2021/10/01 12:02:41;;;;;;;7.35;1.20;;;21.70;52.80;;;;;;5113445;28;20015;-78
2021/10/01 12:05:19;;;;;;;12.40;1.58;;;22.40;52.00;;;;;;5112190;28;20063;-79
2021/10/01 12:08:01;;;;;;;7.18;1.30;;;22.50;49.30;;;;;;5112898;28;20094;-80
2021/10/01 12:10:30;;;;;;;5.97;1.10;;;22.30;49.00;;;;;;5111679;28;20027;-76
2021/10/01 12:13:22;;;;;;;10.52;2.13;;;21.90;48.60;;;;;;5113707;28;20084;-75
2021/10/01 12:15:53;;;;;;;7.85;1.90;;;21.30;48.90;;;;;;5117658;28;20499;-77
2021/10/01 12:18:37;;;;;;;6.15;1.52;;;20.70;49.70;;;;;;5115767;28;20055;-77
2021/10/01 12:21:09;;;;;;;7.00;2.05;;;20.20;50.70;;;;;;5100039;28;20048;-77
2021/10/01 12:23:40;;;;;;;6.65;1.55;;;20.30;51.50;;;;;;5104386;28;20032;-78
2021/10/01 12:26:34;;;;;;;6.75;1.20;;;20.40;51.20;;;;;;5098928;28;20127;-79
2021/10/01 12:29:11;;;;;;;4.25;1.10;;;20.40;50.90;;;;;;5103675;28;20378;-77
2021/10/01 12:31:48;;;;;;;6.13;1.38;;;20.50;51.60;;;;;;5104812;28;20415;-78
2021/10/01 12:34:15;;;;;;;7.70;1.67;;;20.60;50.90;;;;;;5105990;28;20072;-78
2021/10/01 12:36:44;;;;;;;11.60;1.70;;;20.60;51.10;;;;;;5109166;28;20462;-79
2021/10/01 12:39:10;;;;;;;11.27;2.35;;;20.90;51.40;;;;;;5106316;27;20115;-77
2021/10/01 12:41:35;;;;;;;;;;;20.80;50.70;;;;;;5108562;28;20051;-79
2021/10/01 12:44:03;;;;;;;8.27;1.83;;;20.50;51.10;;;;;;5115845;28;20350;-78
2021/10/01 12:46:37;;;;;;;10.77;3.90;;;20.20;52.00;;;;;;5105672;28;20027;-78
2021/10/01 12:49:27;;;;;;;7.95;1.75;;;20.20;52.90;;;;;;5110680;28;20012;-78
2021/10/01 12:52:14;;;;;;;6.22;1.40;;;20.40;53.30;;;;;;5099533;28;20072;-77
2021/10/01 12:54:44;;;;;;;10.82;1.60;;;20.60;52.70;;;;;;5102255;28;20020;-76
2021/10/01 12:57:16;;;;;;;10.02;1.45;;;20.50;52.30;;;;;;5101179;28;20024;-79
2021/10/01 12:59:49;;;;;;;5.57;1.40;;;20.40;52.80;;;;;;5112512;28;20027;-76
2021/10/01 13:02:25;;;;;;;6.80;1.50;;;20.40;53.10;;;;;;5110675;28;20569;-74
2021/10/01 13:04:59;;;;;;;9.97;1.57;;;20.50;52.70;;;;;;5114869;28;20039;-79
2021/10/01 13:07:30;;;;;;;11.27;1.60;;;20.40;52.40;;;;;;5106576;28;20016;-78
2021/10/01 13:09:59;;;;;;;8.20;1.35;;;20.20;51.70;;;;;;5110207;28;20077;-79
2021/10/01 13:12:44;;;;;;;7.53;2.35;;;19.90;51.90;;;;;;5110858;28;20794;-80
2021/10/01 13:15:25;;;;;;;5.68;1.20;;;19.70;52.10;;;;;;5108857;28;20453;-79
2021/10/01 13:18:21;;;;;;;8.73;1.77;;;19.90;53.40;;;;;;5111987;28;20024;-79
2021/10/01 13:21:01;;;;;;;9.50;1.70;;;20.00;53.00;;;;;;5094381;28;20028;-77
2021/10/01 13:23:45;;;;;;;5.95;1.55;;;19.70;52.50;;;;;;5096918;28;20031;-78
2021/10/01 13:26:17;;;;;;;5.03;1.23;;;19.20;53.30;;;;;;5103045;28;20085;-79
2021/10/01 13:28:51;;;;;;;8.45;1.10;;;18.60;54.70;;;;;;5106863;28;20020;-78
2021/10/01 13:31:18;;;;;;;9.40;1.90;;;17.80;56.50;;;;;;5106447;28;20472;-76
2021/10/01 13:33:45;;;;;;;6.07;1.65;;;16.90;58.30;;;;;;5107909;28;20085;-77
2021/10/01 13:36:12;;;;;;;5.57;1.25;;;16.10;60.20;;;;;;5106348;28;20123;-74
2021/10/01 13:38:41;;;;;;;5.63;1.27;;;15.90;62.40;;;;;;5099855;28;20395;-79
2021/10/01 13:41:10;;;;;;;5.82;0.88;;;16.30;63.20;;;;;;5104818;28;20086;-76
2021/10/01 13:43:38;;;;;;;4.40;0.90;;;16.70;62.70;;;;;;5101665;28;20066;-81
2021/10/01 13:46:06;;;;;;;4.25;1.15;;;16.80;61.20;;;;;;5094376;28;20047;-78
2021/10/01 13:48:32;;;;;;;6.25;1.60;;;16.80;60.70;;;;;;5094297;28;20059;-80
2021/10/01 13:50:58;;;;;;;2.55;0.70;;;16.70;60.20;;;;;;5084695;28;20172;-81
2021/10/01 13:53:24;;;;;;;3.97;0.70;;;16.60;60.30;;;;;;5083699;28;20036;-80
2021/10/01 13:55:50;;;;;;;4.85;0.95;;;16.50;59.90;;;;;;5095165;28;20040;-78
2021/10/01 13:58:16;;;;;;;3.90;0.80;;;16.40;60.10;;;;;;5101982;28;20110;-78
2021/10/01 14:00:42;;;;;;;4.20;1.33;;;16.30;60.20;;;;;;5106207;28;20589;-76
2021/10/01 14:03:08;;;;;;;3.65;0.85;;;16.20;60.20;;;;;;5109937;28;20496;-78
2021/10/01 14:05:34;;;;;;;4.97;1.27;;;16.10;60.30;;;;;;5111399;28;20032;-79
2021/10/01 14:08:00;;;;;;;6.38;1.20;;;16.00;60.90;;;;;;5111735;28;20065;-75
2021/10/01 14:10:28;;;;;;;8.25;1.65;;;16.00;61.20;;;;;;5102335;28;20429;-74
2021/10/01 14:12:54;;;;;;;10.85;2.38;;;16.00;61.40;;;;;;5106609;28;20136;-79
2021/10/01 14:15:24;;;;;;;8.48;1.88;;;16.00;61.50;;;;;;5095546;28;20458;-83
2021/10/01 14:17:50;;;;;;;4.68;1.50;;;15.90;61.60;;;;;;5104334;28;20441;-77
2021/10/01 14:20:18;;;;;;;8.45;1.88;;;15.90;62.00;;;;;;5113500;28;20027;-77
2021/10/01 14:22:45;;;;;;;7.10;1.70;;;16.00;62.30;;;;;;5082210;28;20046;-77
2021/10/01 14:25:12;;;;;;;7.35;1.40;;;16.10;62.60;;;;;;5108026;28;20115;-75
2021/10/01 14:27:38;;;;;;;9.75;1.58;;;16.20;62.70;;;;;;5102862;28;20320;-75
2021/10/01 14:30:06;;;;;;;11.55;2.00;;;16.20;62.60;;;;;;5109896;28;20079;-76
2021/10/01 14:32:32;;;;;;;9.10;1.70;;;16.20;62.60;;;;;;5103305;28;20020;-75